Time;durP1;ratioP1;P1;durP2;ratioP2;P2;SDS_P1;SDS_P2;PMS_P1;PMS_P2;Temp;Humidity;BMP_temperature;BMP_pressure;BME280_temperature;BME280_humidity;BME280_pressure;Samples;Min_cycle;Max_cycle;Signal;HPM_P1;HPM_P2
2021/09/06 00:01:58;;;;;;;9.05;8.15;;;;;;;;;;5112547;28;20426;-87
2021/09/06 00:04:24;;;;;;;8.82;7.70;;;;;;;;;;5112674;28;20040;-88
2021/09/06 00:06:50;;;;;;;8.80;6.93;;;;;;;;;;5112619;28;20031;-89
2021/09/06 00:09:16;;;;;;;8.93;7.22;;;;;;;;;;5112935;28;20548;-88
2021/09/06 00:11:42;;;;;;;7.47;6.57;;;;;;;;;;5112654;28;20058;-88
2021/09/06 00:14:08;;;;;;;9.20;7.50;;;;;;;;;;5113656;28;20084;-88
2021/09/06 00:16:34;;;;;;;8.77;7.65;;;;;;;;;;5112807;28;20035;-88
2021/09/06 00:19:03;;;;;;;8.25;7.15;;;;;;;;;;5112714;28;20027;-87
2021/09/06 00:21:31;;;;;;;8.02;7.20;;;;;;;;;;5112551;28;20030;-86
2021/09/06 00:23:57;;;;;;;9.02;7.55;;;;;;;;;;5112288;28;20020;-87
2021/09/06 00:26:23;;;;;;;9.68;7.80;;;;;;;;;;5111945;28;20027;-88
2021/09/06 00:28:49;;;;;;;8.60;7.40;;;;;;;;;;5112509;28;20445;-87
2021/09/06 00:31:15;;;;;;;8.05;7.05;;;;;;;;;;5112737;28;20072;-87
2021/09/06 00:33:43;;;;;;;9.85;6.90;;;;;;;;;;5111111;28;20478;-85
2021/09/06 00:36:09;;;;;;;8.60;7.38;;;;;;;;;;5112579;28;20024;-87
2021/09/06 00:38:35;;;;;;;7.93;6.78;;;;;;;;;;5111503;28;20471;-86
2021/09/06 00:41:01;;;;;;;8.27;7.45;;;;;;;;;;5112300;28;20094;-86
2021/09/06 00:43:28;;;;;;;8.38;7.45;;;;;;;;;;5111702;28;20028;-86
2021/09/06 00:45:56;;;;;;;7.13;6.28;;;;;;;;;;5111460;28;20067;-87
2021/09/06 00:48:25;;;;;;;7.90;6.82;;;;;;;;;;5112495;28;20107;-86
2021/09/06 00:50:51;;;;;;;8.25;6.95;;;;;;;;;;5111657;28;20023;-85
2021/09/06 00:53:17;;;;;;;8.30;7.40;;;;;;;;;;5111956;28;20030;-86
2021/09/06 00:55:43;;;;;;;8.20;7.25;;;;;;;;;;5111707;28;20507;-88
2021/09/06 00:58:10;;;;;;;7.95;7.15;;;;;;;;;;5112274;28;20028;-87
2021/09/06 01:00:36;;;;;;;7.70;6.80;;;;;;;;;;5112397;28;20042;-86
2021/09/06 01:03:02;;;;;;;8.68;7.78;;;;;;;;;;5111310;28;20028;-86
2021/09/06 01:05:29;;;;;;;9.55;7.72;;;;;;;;;;5111078;28;20035;-86
2021/09/06 01:07:56;;;;;;;8.80;7.25;;;;;;;;;;5111431;28;20084;-86
2021/09/06 01:10:23;;;;;;;8.02;6.88;;;;;;;;;;5111560;28;20093;-86
2021/09/06 01:12:49;;;;;;;7.63;6.82;;;;;;;;;;5111276;28;20487;-85
2021/09/06 01:15:15;;;;;;;9.13;7.05;;;;;;;;;;5112043;28;20027;-85
2021/09/06 01:17:41;;;;;;;8.02;7.22;;;;;;;;;;5111179;28;20026;-85
2021/09/06 01:20:09;;;;;;;8.25;7.35;;;;;;;;;;5111586;28;20031;-87
2021/09/06 01:22:35;;;;;;;8.25;7.45;;;;;;;;;;5111681;28;20023;-87
2021/09/06 01:25:02;;;;;;;7.65;6.85;;;;;;;;;;5110936;28;20069;-86
2021/09/06 01:27:28;;;;;;;7.70;6.85;;;;;;;;;;5111909;28;20056;-86
2021/09/06 01:29:54;;;;;;;8.27;7.38;;;;;;;;;;5111175;28;20028;-87
2021/09/06 01:32:20;;;;;;;8.05;7.25;;;;;;;;;;5110806;28;20039;-86
2021/09/06 01:34:46;;;;;;;8.82;7.82;;;;;;;;;;5109086;28;20031;-87
2021/09/06 01:37:12;;;;;;;8.23;7.13;;;;;;;;;;5111560;28;20471;-86
2021/09/06 01:39:38;;;;;;;7.57;6.78;;;;;;;;;;5112064;28;20036;-87
2021/09/06 01:42:04;;;;;;;8.52;7.38;;;;;;;;;;5111352;28;20019;-87
2021/09/06 01:44:30;;;;;;;9.80;7.88;;;;;;;;;;5111094;28;20036;-88
2021/09/06 01:46:56;;;;;;;7.45;6.65;;;;;;;;;;5110977;28;20055;-88
2021/09/06 01:49:22;;;;;;;7.20;6.47;;;;;;;;;;5111532;28;20031;-87
2021/09/06 01:51:48;;;;;;;7.97;6.95;;;;;;;;;;5111038;28;20058;-88
2021/09/06 01:54:14;;;;;;;8.40;7.00;;;;;;;;;;5111305;28;20024;-87
2021/09/06 01:56:40;;;;;;;7.80;6.60;;;;;;;;;;5111346;28;20065;-81
2021/09/06 01:59:06;;;;;;;8.75;7.55;;;;;;;;;;5115522;28;20058;-88
2021/09/06 02:01:32;;;;;;;7.32;6.63;;;;;;;;;;5115648;28;20020;-88
2021/09/06 02:03:58;;;;;;;8.38;7.45;;;;;;;;;;5114849;28;20042;-88
2021/09/06 02:06:24;;;;;;;7.15;6.45;;;;;;;;;;5114700;28;20091;-87
2021/09/06 02:08:50;;;;;;;7.60;6.80;;;;;;;;;;5115090;28;20085;-89
2021/09/06 02:11:16;;;;;;;8.75;7.07;;;;;;;;;;5114985;28;20034;-87
2021/09/06 02:13:42;;;;;;;7.45;6.65;;;;;;;;;;5114277;28;20027;-86
2021/09/06 02:16:08;;;;;;;8.18;7.30;;;;;;;;;;5115527;28;20328;-88
2021/09/06 02:18:34;;;;;;;8.57;6.97;;;;;;;;;;5114921;28;20027;-84
2021/09/06 02:21:00;;;;;;;8.85;7.28;;;;;;;;;;5114953;28;20060;-88
2021/09/06 02:23:26;;;;;;;8.00;7.20;;;;;;;;;;5114385;28;20564;-88
2021/09/06 02:25:53;;;;;;;8.52;6.63;;;;;;;;;;5114138;28;20071;-87
2021/09/06 02:28:19;;;;;;;8.55;7.47;;;;;;;;;;5113668;28;20497;-87
2021/09/06 02:30:45;;;;;;;7.28;6.53;;;;;;;;;;5114803;28;20035;-85
2021/09/06 02:33:11;;;;;;;7.63;6.82;;;;;;;;;;5113100;28;20119;-84
2021/09/06 02:35:37;;;;;;;8.65;7.18;;;;;;;;;;5112619;28;20078;-86
2021/09/06 02:38:03;;;;;;;8.10;7.30;;;;;;;;;;5114391;28;20047;-87
2021/09/06 02:40:29;;;;;;;7.63;6.82;;;;;;;;;;5114969;28;20023;-88
2021/09/06 02:42:55;;;;;;;8.00;6.78;;;;;;;;;;5113395;28;20448;-86
2021/09/06 02:45:21;;;;;;;8.25;7.03;;;;;;;;;;5114611;28;20537;-85
2021/09/06 02:47:48;;;;;;;9.02;7.43;;;;;;;;;;5114586;28;20039;-87
2021/09/06 02:50:15;;;;;;;8.73;7.25;;;;;;;;;;5114459;28;20418;-87
2021/09/06 02:52:41;;;;;;;8.15;7.28;;;;;;;;;;5114041;28;20103;-84
2021/09/06 02:55:07;;;;;;;8.90;7.15;;;;;;;;;;5114951;28;20090;-86
2021/09/06 02:57:33;;;;;;;7.45;6.60;;;;;;;;;;5114112;28;20023;-87
2021/09/06 02:59:59;;;;;;;7.80;7.00;;;;;;;;;;5113800;28;20063;-86
2021/09/06 03:02:26;;;;;;;7.93;6.47;;;;;;;;;;5114339;28;20051;-87
2021/09/06 03:04:52;;;;;;;8.23;6.93;;;;;;;;;;5114086;28;20032;-87
2021/09/06 03:07:18;;;;;;;7.47;6.45;;;;;;;;;;5112864;28;20143;-87
2021/09/06 03:09:44;;;;;;;7.63;6.82;;;;;;;;;;5112049;28;20028;-87
2021/09/06 03:12:10;;;;;;;8.02;7.18;;;;;;;;;;5113314;28;20023;-75
2021/09/06 03:14:36;;;;;;;7.80;7.00;;;;;;;;;;5114358;28;20030;-87
2021/09/06 03:17:02;;;;;;;7.50;6.72;;;;;;;;;;5113889;28;20019;-87
2021/09/06 03:19:28;;;;;;;7.03;6.32;;;;;;;;;;5113907;28;20027;-86
2021/09/06 03:21:54;;;;;;;8.10;7.03;;;;;;;;;;5113603;28;20024;-87
2021/09/06 03:24:20;;;;;;;9.77;7.40;;;;;;;;;;5113457;28;20030;-87
2021/09/06 03:26:46;;;;;;;7.95;7.15;;;;;;;;;;5113375;28;20027;-88
2021/09/06 03:29:12;;;;;;;8.73;6.95;;;;;;;;;;5113647;28;20028;-87
2021/09/06 03:31:38;;;;;;;8.75;7.45;;;;;;;;;;5113498;28;20525;-87
2021/09/06 03:34:04;;;;;;;6.90;6.03;;;;;;;;;;5112984;28;20031;-87
2021/09/06 03:36:30;;;;;;;7.90;7.10;;;;;;;;;;5113236;28;20019;-87
2021/09/06 03:38:56;;;;;;;7.65;6.57;;;;;;;;;;5112334;28;20403;-87
2021/09/06 03:41:23;;;;;;;7.82;6.95;;;;;;;;;;5113656;28;20498;-87
2021/09/06 03:43:49;;;;;;;7.25;6.55;;;;;;;;;;5112935;28;20039;-87
2021/09/06 03:46:15;;;;;;;7.28;6.03;;;;;;;;;;5113530;28;20032;-85
2021/09/06 03:48:42;;;;;;;7.50;6.40;;;;;;;;;;5113093;28;20020;-89
2021/09/06 03:51:08;;;;;;;8.32;6.95;;;;;;;;;;5113555;28;20073;-87
2021/09/06 03:53:34;;;;;;;8.07;6.97;;;;;;;;;;5112981;28;20023;-86
2021/09/06 03:56:00;;;;;;;7.10;6.22;;;;;;;;;;5112734;28;20377;-86
2021/09/06 03:58:26;;;;;;;7.72;6.93;;;;;;;;;;5111709;28;20023;-86
2021/09/06 04:00:52;;;;;;;7.93;7.13;;;;;;;;;;5113097;28;20111;-86
2021/09/06 04:03:18;;;;;;;8.30;7.38;;;;;;;;;;5112994;28;20081;-86
2021/09/06 04:05:44;;;;;;;7.72;6.85;;;;;;;;;;5112004;28;20059;-86
2021/09/06 04:08:10;;;;;;;7.80;7.00;;;;;;;;;;5111893;28;20108;-76
2021/09/06 04:10:36;;;;;;;8.20;7.00;;;;;;;;;;5113392;28;20436;-88
2021/09/06 04:13:02;;;;;;;8.10;7.13;;;;;;;;;;5111048;28;20471;-88
2021/09/06 04:15:28;;;;;;;7.85;7.05;;;;;;;;;;5112575;28;20020;-88
2021/09/06 04:17:54;;;;;;;11.25;7.45;;;;;;;;;;5112472;28;20036;-88
2021/09/06 04:20:20;;;;;;;8.60;6.70;;;;;;;;;;5113036;28;20024;-88
2021/09/06 04:22:46;;;;;;;8.05;7.05;;;;;;;;;;5112724;28;20478;-88
2021/09/06 04:25:13;;;;;;;7.68;6.47;;;;;;;;;;5112336;28;20058;-88
2021/09/06 04:27:39;;;;;;;8.40;6.40;;;;;;;;;;5111560;28;20477;-90
2021/09/06 04:30:05;;;;;;;7.38;6.22;;;;;;;;;;5112312;28;20031;-89
2021/09/06 04:32:31;;;;;;;9.10;8.05;;;;;;;;;;5112777;28;20035;-88
2021/09/06 04:34:57;;;;;;;7.80;7.00;;;;;;;;;;5110903;28;20027;-87
2021/09/06 04:37:23;;;;;;;6.85;5.97;;;;;;;;;;5112349;28;20426;-87
2021/09/06 04:39:50;;;;;;;8.25;7.07;;;;;;;;;;5112328;28;20506;-87
2021/09/06 04:42:16;;;;;;;9.98;7.65;;;;;;;;;;5112295;28;20035;-86
2021/09/06 04:44:42;;;;;;;9.40;6.80;;;;;;;;;;5111794;28;20495;-85
2021/09/06 04:47:08;;;;;;;8.40;7.55;;;;;;;;;;5112742;28;20110;-88
2021/09/06 04:49:34;;;;;;;7.75;6.47;;;;;;;;;;5112490;28;20020;-86
2021/09/06 04:52:00;;;;;;;8.15;7.35;;;;;;;;;;5112094;28;20032;-87
2021/09/06 04:54:26;;;;;;;9.57;6.90;;;;;;;;;;5110655;28;20055;-88
2021/09/06 04:56:53;;;;;;;8.32;7.45;;;;;;;;;;5111776;28;20055;-87
2021/09/06 04:59:21;;;;;;;8.77;7.57;;;;;;;;;;5112002;27;20040;-88
2021/09/06 05:01:48;;;;;;;8.13;7.00;;;;;;;;;;5111507;28;20032;-88
2021/09/06 05:04:14;;;;;;;7.72;6.63;;;;;;;;;;5111710;28;20107;-88
2021/09/06 05:06:40;;;;;;;9.00;7.30;;;;;;;;;;5111230;28;20078;-76
2021/09/06 05:09:06;;;;;;;8.10;6.97;;;;;;;;;;5112118;28;20040;-88
2021/09/06 05:11:32;;;;;;;8.20;7.30;;;;;;;;;;5111416;28;20026;-88
2021/09/06 05:13:58;;;;;;;8.07;6.60;;;;;;;;;;5111175;28;20024;-87
2021/09/06 05:16:25;;;;;;;7.45;6.22;;;;;;;;;;5111332;28;20080;-88
2021/09/06 05:18:51;;;;;;;7.55;6.38;;;;;;;;;;5111774;28;20495;-89
2021/09/06 05:21:17;;;;;;;8.98;7.43;;;;;;;;;;5111317;28;20028;-86
2021/09/06 05:23:43;;;;;;;8.88;7.20;;;;;;;;;;5111675;28;20076;-87
2021/09/06 05:26:09;;;;;;;7.88;6.55;;;;;;;;;;5110169;28;20480;-88
2021/09/06 05:28:35;;;;;;;8.75;7.43;;;;;;;;;;5111827;28;20036;-89
2021/09/06 05:31:03;;;;;;;8.52;7.22;;;;;;;;;;5110906;28;20028;-87
2021/09/06 05:33:29;;;;;;;8.75;7.03;;;;;;;;;;5110618;28;20024;-88
2021/09/06 05:35:55;;;;;;;8.15;6.90;;;;;;;;;;5110625;28;20115;-86
2021/09/06 05:38:22;;;;;;;9.27;7.28;;;;;;;;;;5111055;28;20024;-87
2021/09/06 05:40:48;;;;;;;8.02;6.80;;;;;;;;;;5111171;28;20031;-87
2021/09/06 05:43:14;;;;;;;8.05;6.78;;;;;;;;;;5113664;28;20020;-84
2021/09/06 05:45:40;;;;;;;8.00;6.85;;;;;;;;;;5111845;28;20558;-83
2021/09/06 05:48:06;;;;;;;7.47;6.72;;;;;;;;;;5111444;28;20031;-80
2021/09/06 05:50:32;;;;;;;8.65;6.65;;;;;;;;;;5110817;28;20032;-85
2021/09/06 05:52:58;;;;;;;9.50;7.40;;;;;;;;;;5108843;28;20073;-81
2021/09/06 05:55:25;;;;;;;7.75;6.78;;;;;;;;;;5110999;28;20027;-84
2021/09/06 05:57:51;;;;;;;7.88;6.82;;;;;;;;;;5110730;28;20476;-84
2021/09/06 06:00:17;;;;;;;8.15;7.35;;;;;;;;;;5111587;28;20102;-86
2021/09/06 06:02:45;;;;;;;8.93;7.53;;;;;;;;;;5110668;28;20455;-86
2021/09/06 06:05:11;;;;;;;8.65;7.72;;;;;;;;;;5111238;28;20532;-82
2021/09/06 06:07:37;;;;;;;8.15;7.00;;;;;;;;;;5112123;28;20056;-91
2021/09/06 06:10:03;;;;;;;8.73;6.95;;;;;;;;;;5111935;28;20099;-93
2021/09/06 06:12:30;;;;;;;8.18;7.15;;;;;;;;;;5112065;28;20027;-91
2021/09/06 06:14:56;;;;;;;8.68;7.70;;;;;;;;;;5110746;28;20028;-90
2021/09/06 06:17:22;;;;;;;7.90;7.00;;;;;;;;;;5112143;28;20035;-91
2021/09/06 06:19:48;;;;;;;9.80;8.20;;;;;;;;;;5111588;28;20045;-87
2021/09/06 06:22:14;;;;;;;8.13;6.85;;;;;;;;;;5111514;28;20047;-83
2021/09/06 06:24:40;;;;;;;13.98;8.32;;;;;;;;;;5110449;28;20028;-79
2021/09/06 06:27:06;;;;;;;9.00;7.50;;;;;;;;;;5111473;28;20039;-87
2021/09/06 06:29:32;;;;;;;12.60;9.15;;;;;;;;;;5111271;28;20028;-90
2021/09/06 06:32:00;;;;;;;13.07;9.27;;;;;;;;;;5109028;28;20097;-88
2021/09/06 06:34:26;;;;;;;11.82;9.38;;;;;;;;;;5111685;28;20030;-82
2021/09/06 06:36:52;;;;;;;17.23;10.82;;;;;;;;;;5115227;28;20036;-88
2021/09/06 06:39:18;;;;;;;18.30;12.82;;;;;;;;;;5111826;28;20152;-87
2021/09/06 06:41:49;;;;;;;14.27;10.75;;;;;;;;;;5110903;28;20020;-86
2021/09/06 06:44:15;;;;;;;16.35;11.18;;;;;;;;;;5111985;28;20034;-89
2021/09/06 06:46:41;;;;;;;14.35;11.13;;;;;;;;;;5113032;28;20119;-86
2021/09/06 06:49:07;;;;;;;16.65;11.73;;;;;;;;;;5115611;28;20375;-87
2021/09/06 06:51:34;;;;;;;15.98;11.57;;;;;;;;;;5111313;28;20038;-89
2021/09/06 06:54:00;;;;;;;18.00;13.50;;;;;;;;;;5113128;28;20031;-90
2021/09/06 06:56:26;;;;;;;15.90;11.15;;;;;;;;;;5113818;28;20028;-88
2021/09/06 06:58:52;;;;;;;15.70;12.77;;;;;;;;;;5112817;28;20501;-81
2021/09/06 07:01:18;;;;;;;17.33;13.30;;;;;;;;;;5114235;28;20116;-83
2021/09/06 07:03:44;;;;;;;15.70;11.85;;;;;;;;;;5112833;28;20022;-87
2021/09/06 07:06:10;;;;;;;18.98;14.25;;;;;;;;;;5114702;28;20425;-88
2021/09/06 07:08:36;;;;;;;19.42;13.68;;;;;;;;;;5114749;28;20023;-88
2021/09/06 07:11:02;;;;;;;18.80;12.98;;;;;;;;;;5114138;28;20027;-88
2021/09/06 07:13:28;;;;;;;18.58;12.55;;;;;;;;;;5114319;28;20023;-88
2021/09/06 07:15:54;;;;;;;17.23;12.57;;;;;;;;;;5113969;28;20468;-87
2021/09/06 07:18:20;;;;;;;19.33;12.30;;;;;;;;;;5114048;28;20081;-86
2021/09/06 07:20:46;;;;;;;16.95;12.23;;;;;;;;;;5113784;28;20030;-88
2021/09/06 07:23:12;;;;;;;15.85;12.35;;;;;;;;;;5112440;28;20055;-81
2021/09/06 07:25:38;;;;;;;28.30;20.70;;;;;;;;;;5112567;28;20028;-82
2021/09/06 07:28:04;;;;;;;30.52;20.23;;;;;;;;;;5113673;28;20399;-81
2021/09/06 07:30:30;;;;;;;35.05;22.17;;;;;;;;;;5113906;28;20035;-79
2021/09/06 07:32:57;;;;;;;36.67;22.05;;;;;;;;;;5113668;28;20028;-81
2021/09/06 07:35:24;;;;;;;42.97;25.05;;;;;;;;;;5113422;28;20419;-79
2021/09/06 07:37:51;;;;;;;39.03;25.38;;;;;;;;;;5112096;28;20034;-81
2021/09/06 07:40:17;;;;;;;42.85;25.85;;;;;;;;;;5113797;28;20158;-85
2021/09/06 07:42:43;;;;;;;41.03;28.88;;;;;;;;;;5113027;28;20031;-83
2021/09/06 07:45:10;;;;;;;48.88;28.60;;;;;;;;;;5114000;28;20034;-78
2021/09/06 07:47:36;;;;;;;46.83;29.80;;;;;;;;;;5112431;28;20126;-81
2021/09/06 07:50:04;;;;;;;61.00;34.17;;;;;;;;;;5113102;28;20024;-80
2021/09/06 07:52:30;;;;;;;52.58;32.65;;;;;;;;;;5112800;28;20031;-80
2021/09/06 07:54:56;;;;;;;47.50;30.20;;;;;;;;;;5111014;28;20041;-81
2021/09/06 07:57:22;;;;;;;52.92;32.00;;;;;;;;;;5112509;28;20038;-80
2021/09/06 07:59:48;;;;;;;58.88;33.33;;;;;;;;;;5113082;28;20023;-79
2021/09/06 08:02:14;;;;;;;89.95;35.92;;;;;;;;;;5113258;28;20051;-81
2021/09/06 08:04:40;;;;;;;110.25;35.97;;;;;;;;;;5113353;28;20047;-79
2021/09/06 08:07:06;;;;;;;97.10;35.92;;;;;;;;;;5112110;28;20463;-80
2021/09/06 08:09:32;;;;;;;93.18;35.72;;;;;;;;;;5112971;28;20024;-81
2021/09/06 08:11:58;;;;;;;85.75;31.85;;;;;;;;;;5112709;28;20154;-78
2021/09/06 08:14:24;;;;;;;70.57;33.90;;;;;;;;;;5112975;28;20020;-82
2021/09/06 08:16:50;;;;;;;93.32;34.75;;;;;;;;;;5112598;28;20494;-81
2021/09/06 08:19:16;;;;;;;79.15;33.75;;;;;;;;;;5112819;28;20055;-81
2021/09/06 08:21:42;;;;;;;60.45;33.53;;;;;;;;;;5112711;28;20051;-81
2021/09/06 08:24:09;;;;;;;69.90;34.50;;;;;;;;;;5111603;28;20038;-81
2021/09/06 08:26:35;;;;;;;66.75;36.00;;;;;;;;;;5112821;28;20077;-82
2021/09/06 08:29:01;;;;;;;63.22;36.17;;;;;;;;;;5112526;28;20031;-83
2021/09/06 08:31:29;;;;;;;64.45;37.15;;;;;;;;;;5112702;28;20104;-82
2021/09/06 08:33:55;;;;;;;58.75;36.90;;;;;;;;;;5112449;28;20036;-80
2021/09/06 08:36:21;;;;;;;64.25;35.35;;;;;;;;;;5112287;28;20040;-83
2021/09/06 08:38:47;;;;;;;64.45;36.97;;;;;;;;;;5112134;28;20475;-80
2021/09/06 08:41:14;;;;;;;58.20;35.40;;;;;;;;;;5112386;28;20107;-82
2021/09/06 08:43:40;;;;;;;58.17;34.63;;;;;;;;;;5110880;28;20028;-84
2021/09/06 08:46:06;;;;;;;59.13;35.38;;;;;;;;;;5112591;28;20042;-83
2021/09/06 08:48:32;;;;;;;51.17;34.90;;;;;;;;;;5112239;28;20016;-82
2021/09/06 08:50:58;;;;;;;54.95;38.05;;;;;;;;;;5111838;28;20034;-82
2021/09/06 08:53:24;;;;;;;61.00;38.78;;;;;;;;;;5112382;28;20102;-81
2021/09/06 08:55:52;;;;;;;60.17;40.00;;;;;;;;;;5111662;28;20103;-81
2021/09/06 08:58:18;;;;;;;63.00;41.67;;;;;;;;;;5111974;28;20537;-83
2021/09/06 09:00:49;;;;;;;68.30;41.80;;;;;;;;;;5112085;28;20020;-84
2021/09/06 09:03:15;;;;;;;69.95;43.70;;;;;;;;;;5112173;28;20031;-83
2021/09/06 09:05:59;;;;;;;66.47;40.40;;;;;;;;;;5111676;28;20028;-81
2021/09/06 09:08:25;;;;;;;58.28;41.70;;;;;;;;;;5111019;28;20399;-82
2021/09/06 09:10:56;;;;;;;56.33;41.50;;;;;;;;;;5111978;28;20019;-81
2021/09/06 09:13:22;;;;;;;62.25;40.25;;;;;;;;;;5112052;28;20049;-82
2021/09/06 09:15:54;;;;;;;56.63;40.45;;;;;;;;;;5111428;28;20094;-82
2021/09/06 09:18:27;;;;;;;68.00;43.33;;;;;;;;;;5111779;28;20020;-79
2021/09/06 09:21:01;;;;;;;62.15;43.75;;;;;;;;;;5110039;28;20027;-81
2021/09/06 09:23:44;;;;;;;58.83;39.28;;;;;;;;;;5111808;28;20022;-82
2021/09/06 09:26:10;;;;;;;63.85;41.08;;;;;;;;;;5111998;28;20077;-82
2021/09/06 09:28:38;;;;;;;60.22;38.28;;;;;;;;;;5112136;28;20034;-79
2021/09/06 09:31:05;;;;;;;59.40;39.97;;;;;;;;;;5111658;28;20034;-81
2021/09/06 09:33:31;;;;;;;57.60;39.65;;;;;;;;;;5111589;28;20028;-80
2021/09/06 09:36:00;;;;;;;58.70;40.55;;;;;;;;;;5111560;28;20028;-81
2021/09/06 09:38:33;;;;;;;57.63;40.45;;;;;;;;;;5111799;28;20096;-80
2021/09/06 09:41:00;;;;;;;56.05;40.67;;;;;;;;;;5111523;28;20051;-80
2021/09/06 09:43:30;;;;;;;60.10;40.15;;;;;;;;;;5111406;28;20065;-82
2021/09/06 09:46:05;;;;;;;61.25;38.92;;;;;;;;;;5110902;28;20023;-81
2021/09/06 09:48:31;;;;;;;53.88;39.00;;;;;;;;;;5111686;28;20027;-78
2021/09/06 09:50:58;;;;;;;57.35;37.80;;;;;;;;;;5111286;28;20028;-81
2021/09/06 09:53:24;;;;;;;58.42;33.60;;;;;;;;;;5111602;28;20046;-79
2021/09/06 09:55:50;;;;;;;50.30;32.25;;;;;;;;;;5111121;28;20023;-83
2021/09/06 09:58:16;;;;;;;51.28;31.98;;;;;;;;;;5111232;28;20033;-82
2021/09/06 10:00:45;;;;;;;53.05;35.10;;;;;;;;;;5111151;28;20507;-82
2021/09/06 10:03:11;;;;;;;58.03;30.60;;;;;;;;;;5111699;28;20034;-78
2021/09/06 10:05:38;;;;;;;48.72;29.88;;;;;;;;;;5111745;28;20027;-80
2021/09/06 10:08:06;;;;;;;48.67;32.97;;;;;;;;;;5111272;28;20057;-82
2021/09/06 10:10:36;;;;;;;47.30;30.88;;;;;;;;;;5111479;28;20023;-79
2021/09/06 10:13:06;;;;;;;50.30;31.83;;;;;;;;;;5111093;28;20024;-79
2021/09/06 10:15:33;;;;;;;52.25;29.80;;;;;;;;;;5111413;28;20023;-82
2021/09/06 10:18:01;;;;;;;46.20;31.27;;;;;;;;;;5111379;28;20057;-80
2021/09/06 10:20:27;;;;;;;48.75;29.73;;;;;;;;;;5115246;28;20056;-78
2021/09/06 10:23:06;;;;;;;45.72;30.60;;;;;;;;;;5103461;27;20016;-81
2021/09/06 10:25:34;;;;;;;38.95;28.83;;;;;;;;;;5104274;28;20024;-81
2021/09/06 10:28:04;;;;;;;59.85;31.40;;;;;;;;;;5113917;28;20793;-80
2021/09/06 10:30:36;;;;;;;58.08;30.73;;;;;;;;;;5114230;28;20028;-81
2021/09/06 10:33:02;;;;;;;58.60;28.40;;;;;;;;;;5113911;28;20499;-79
2021/09/06 10:35:28;;;;;;;56.65;27.92;;;;;;;;;;5114104;28;20027;-81
2021/09/06 10:38:00;;;;;;;62.00;28.48;;;;;;;;;;5113992;28;20102;-82
2021/09/06 10:40:28;;;;;;;47.80;27.58;;;;;;;;;;5114380;28;20023;-81
2021/09/06 10:42:54;;;;;;;43.97;25.30;;;;;;;;;;5113731;28;20031;-81
2021/09/06 10:45:22;;;;;;;37.47;25.23;;;;;;;;;;5113835;28;20019;-86
2021/09/06 10:47:56;;;;;;;35.42;25.15;;;;;;;;;;5113727;28;20118;-79
2021/09/06 10:50:23;;;;;;;41.72;25.50;;;;;;;;;;5113915;28;20064;-79
2021/09/06 10:52:49;;;;;;;37.28;23.92;;;;;;;;;;5112554;28;20367;-80
2021/09/06 10:55:16;;;;;;;43.97;25.95;;;;;;;;;;5114011;28;20049;-79
2021/09/06 10:57:43;;;;;;;31.30;22.27;;;;;;;;;;5113572;28;20031;-79
2021/09/06 11:00:20;;;;;;;34.00;22.52;;;;;;;;;;5105692;28;20084;-79
2021/09/06 11:02:48;;;;;;;35.47;21.38;;;;;;;;;;5127354;27;20027;-80
2021/09/06 11:05:21;;;;;;;32.15;21.42;;;;;;;;;;5134168;27;20031;-80
2021/09/06 11:07:47;;;;;;;30.98;19.67;;;;;;;;;;5134076;27;20102;-80
2021/09/06 11:10:15;;;;;;;29.95;18.65;;;;;;;;;;5133967;27;20019;-82
2021/09/06 11:12:52;;;;;;;31.10;19.77;;;;;;;;;;5133578;27;20031;-86
2021/09/06 11:15:32;;;;;;;31.88;20.40;;;;;;;;;;5132495;27;20773;-81
2021/09/06 11:18:09;;;;;;;27.90;19.08;;;;;;;;;;5121193;27;20084;-81
2021/09/06 11:20:36;;;;;;;29.73;19.42;;;;;;;;;;5113388;28;20043;-80
2021/09/06 11:23:07;;;;;;;25.05;16.80;;;;;;;;;;5112939;28;20472;-81
2021/09/06 11:25:34;;;;;;;30.45;17.90;;;;;;;;;;5113330;28;20034;-80
2021/09/06 11:28:04;;;;;;;28.80;18.08;;;;;;;;;;5112750;28;20020;-80
2021/09/06 11:30:32;;;;;;;32.88;17.00;;;;;;;;;;5112384;28;20074;-82
2021/09/06 11:32:58;;;;;;;30.98;16.75;;;;;;;;;;5112906;28;20145;-83
2021/09/06 11:35:24;;;;;;;32.70;16.35;;;;;;;;;;5112974;28;20114;-83
2021/09/06 11:37:52;;;;;;;34.95;16.92;;;;;;;;;;5111373;28;20024;-81
2021/09/06 11:40:18;;;;;;;30.90;15.27;;;;;;;;;;5109747;28;20088;-83
2021/09/06 11:42:44;;;;;;;28.17;14.93;;;;;;;;;;5110883;28;20077;-81
2021/09/06 11:45:10;;;;;;;29.50;15.95;;;;;;;;;;5111573;28;20563;-83
2021/09/06 11:47:37;;;;;;;24.67;15.90;;;;;;;;;;5112009;28;20403;-84
2021/09/06 11:50:07;;;;;;;26.33;14.65;;;;;;;;;;5111232;28;20425;-82
2021/09/06 11:52:36;;;;;;;25.25;14.02;;;;;;;;;;5111452;28;20019;-80
2021/09/06 11:55:04;;;;;;;30.83;13.35;;;;;;;;;;5111083;28;20026;-82
2021/09/06 11:57:33;;;;;;;28.55;14.77;;;;;;;;;;5111452;28;20023;-78
2021/09/06 11:59:59;;;;;;;29.90;12.77;;;;;;;;;;5111346;28;20053;-84
2021/09/06 12:02:25;;;;;;;20.77;12.32;;;;;;;;;;5111031;28;20024;-85
2021/09/06 12:05:15;;;;;;;22.52;13.40;;;;;;;;;;5109415;28;20115;-80
2021/09/06 12:07:51;;;;;;;25.98;13.75;;;;;;;;;;5111773;28;20030;-85
2021/09/06 12:10:26;;;;;;;24.05;12.90;;;;;;;;;;5113368;28;20020;-84
2021/09/06 12:13:09;;;;;;;23.60;12.57;;;;;;;;;;5112777;28;20402;-85
2021/09/06 12:15:37;;;;;;;25.05;12.15;;;;;;;;;;5112846;28;20110;-86
2021/09/06 12:18:07;;;;;;;16.48;10.85;;;;;;;;;;5113031;27;20468;-85
2021/09/06 12:20:38;;;;;;;25.25;11.55;;;;;;;;;;5113206;28;20028;-83
2021/09/06 12:23:04;;;;;;;21.42;12.60;;;;;;;;;;5112687;28;20028;-85
2021/09/06 12:25:30;;;;;;;17.15;11.73;;;;;;;;;;5112921;28;20507;-85
2021/09/06 12:28:05;;;;;;;18.73;12.07;;;;;;;;;;5112593;28;20536;-85
2021/09/06 12:30:31;;;;;;;16.40;11.55;;;;;;;;;;5112574;28;20102;-86
2021/09/06 12:32:57;;;;;;;17.23;10.65;;;;;;;;;;5112433;28;20103;-85
2021/09/06 12:35:23;;;;;;;16.00;11.55;;;;;;;;;;5111706;28;20031;-85
2021/09/06 12:37:49;;;;;;;15.27;11.63;;;;;;;;;;5111764;28;20385;-85
2021/09/06 12:40:15;;;;;;;25.90;12.30;;;;;;;;;;5111183;28;20059;-84
2021/09/06 12:42:47;;;;;;;15.95;10.85;;;;;;;;;;5111104;28;20055;-83
2021/09/06 12:45:13;;;;;;;17.35;11.10;;;;;;;;;;5112062;28;20024;-83
2021/09/06 12:47:39;;;;;;;17.15;11.70;;;;;;;;;;5112695;28;20449;-83
2021/09/06 12:50:05;;;;;;;16.55;10.25;;;;;;;;;;5112592;28;20020;-83
2021/09/06 12:52:31;;;;;;;14.48;11.02;;;;;;;;;;5112249;28;20028;-83
2021/09/06 12:54:57;;;;;;;15.27;11.50;;;;;;;;;;5111910;28;20070;-83
2021/09/06 12:57:23;;;;;;;14.93;10.50;;;;;;;;;;5110688;28;20032;-81
2021/09/06 12:59:49;;;;;;;14.93;10.18;;;;;;;;;;5111882;28;20532;-82
2021/09/06 13:02:15;;;;;;;15.13;10.40;;;;;;;;;;5112072;28;20036;-83
2021/09/06 13:04:41;;;;;;;12.65;10.43;;;;;;;;;;5112013;28;20043;-82
2021/09/06 13:07:07;;;;;;;12.80;9.95;;;;;;;;;;5112193;28;20480;-82
2021/09/06 13:09:33;;;;;;;14.70;10.20;;;;;;;;;;5112138;28;20031;-79
2021/09/06 13:11:59;;;;;;;15.57;10.18;;;;;;;;;;5111442;28;20525;-79
2021/09/06 13:14:27;;;;;;;17.20;10.00;;;;;;;;;;5112049;28;20487;-83
2021/09/06 13:16:53;;;;;;;11.13;9.25;;;;;;;;;;5111577;28;20031;-82
2021/09/06 13:19:19;;;;;;;13.55;10.23;;;;;;;;;;5111763;28;20506;-83
2021/09/06 13:21:45;;;;;;;13.23;9.07;;;;;;;;;;5111692;28;20028;-80
2021/09/06 13:24:11;;;;;;;14.18;10.23;;;;;;;;;;5111670;28;20088;-83
2021/09/06 13:26:40;;;;;;;13.15;9.57;;;;;;;;;;5112100;28;20039;-81
2021/09/06 13:29:06;;;;;;;12.60;10.00;;;;;;;;;;5112049;28;20760;-79
2021/09/06 13:31:32;;;;;;;11.63;9.65;;;;;;;;;;5111800;28;20035;-83
2021/09/06 13:33:57;;;;;;;11.45;10.18;;;23.10;98.40;;;;;;5111383;28;20031;-83
2021/09/06 13:36:23;;;;;;;10.90;9.15;;;24.60;94.10;;;;;;5111800;28;20023;-82
2021/09/06 13:38:49;;;;;;;12.23;9.45;;;24.60;93.90;;;;;;5111497;28;20020;-80
2021/09/06 13:41:15;;;;;;;10.98;8.60;;;;;;;;;;5111088;28;20410;-78
2021/09/06 13:43:41;;;;;;;11.80;9.57;;;;;;;;;;5110063;28;20035;-83
2021/09/06 13:46:07;;;;;;;11.95;9.25;;;;;;;;;;5111717;28;20034;-82
2021/09/06 13:48:33;;;;;;;14.27;9.55;;;;;;;;;;5111606;28;20149;-84
2021/09/06 13:50:59;;;;;;;12.65;8.55;;;;;;;;;;5111036;28;20023;-82
2021/09/06 13:53:28;;;;;;;12.30;9.77;;;24.60;93.80;;;;;;5112435;28;20035;-83
2021/09/06 13:55:54;;;;;;;12.05;9.65;;;24.70;93.60;;;;;;5115522;28;20517;-81
2021/09/06 13:58:19;;;;;;;12.82;9.15;;;24.70;93.60;;;;;;5115944;28;20095;-81
2021/09/06 14:00:45;;;;;;;12.90;9.15;;;24.70;93.70;;;;;;5115497;28;20376;-81
2021/09/06 14:03:11;;;;;;;11.65;9.25;;;24.70;93.50;;;;;;5115767;28;20099;-80
2021/09/06 14:05:38;;;;;;;11.25;8.85;;;24.70;93.60;;;;;;5115714;28;20057;-80
2021/09/06 14:08:04;;;;;;;12.15;8.80;;;24.70;93.60;;;;;;5115362;28;20024;-83
2021/09/06 14:10:30;;;;;;;13.20;9.18;;;24.70;93.50;;;;;;5115202;28;20066;-83
2021/09/06 14:12:57;;;;;;;10.50;7.80;;;24.70;93.50;;;;;;5115303;28;20055;-80
2021/09/06 14:15:22;;;;;;;11.82;8.23;;;24.70;93.40;;;;;;5115318;28;20495;-83
2021/09/06 14:17:48;;;;;;;11.45;8.35;;;24.70;93.40;;;;;;5114991;28;20074;-83
2021/09/06 14:20:14;;;;;;;11.80;8.98;;;24.70;93.40;;;;;;5115266;28;20020;-84
2021/09/06 14:22:40;;;;;;;10.90;8.75;;;24.70;93.50;;;;;;5114981;28;20107;-83